createdAt,value
2023-02-19T00:00:41.229Z,99.99
2023-02-19T00:01:41.227Z,99.99
2023-02-19T00:02:41.245Z,99.99
2023-02-19T00:03:41.326Z,99.99
2023-02-19T00:04:41.241Z,99.99
2023-02-19T00:05:41.214Z,99.99
2023-02-19T00:06:41.208Z,99.99
2023-02-19T00:07:41.206Z,99.99
2023-02-19T00:08:41.201Z,99.99
2023-02-19T00:09:41.196Z,99.99
2023-02-19T00:10:41.196Z,99.99
2023-02-19T00:11:41.197Z,99.99
2023-02-19T00:12:41.188Z,99.99
2023-02-19T00:13:41.187Z,99.99
2023-02-19T00:14:41.182Z,99.99
2023-02-19T00:15:41.209Z,99.99
2023-02-19T00:16:41.180Z,99.99
2023-02-19T00:17:41.171Z,99.99
2023-02-19T00:18:41.196Z,99.99
2023-02-19T00:19:41.165Z,99.99
2023-02-19T00:20:41.162Z,99.99
2023-02-19T00:21:41.156Z,99.99
2023-02-19T00:22:41.167Z,99.99
2023-02-19T00:23:41.147Z,99.99
2023-02-19T00:24:41.154Z,99.99
2023-02-19T00:25:41.141Z,99.99
2023-02-19T00:26:41.149Z,99.99
2023-02-19T00:27:41.142Z,99.99
2023-02-19T00:28:41.139Z,99.99
2023-02-19T00:29:41.134Z,99.99
2023-02-19T00:30:41.132Z,99.99
2023-02-19T00:31:41.264Z,99.99
2023-02-19T00:32:41.125Z,99.99
2023-02-19T00:33:41.120Z,99.99
2023-02-19T00:34:41.145Z,99.99
2023-02-19T00:35:41.114Z,99.99
2023-02-19T00:36:41.128Z,99.99
2023-02-19T00:37:41.107Z,99.99
2023-02-19T00:38:41.108Z,99.99
2023-02-19T00:39:41.104Z,99.99
2023-02-19T00:40:41.170Z,99.99
2023-02-19T00:41:41.104Z,99.99
2023-02-19T00:42:41.093Z,99.99
2023-02-19T00:43:41.097Z,99.99
2023-02-19T00:44:41.090Z,99.99
2023-02-19T00:45:41.084Z,99.99
2023-02-19T00:46:41.194Z,99.99
2023-02-19T00:47:41.081Z,99.99
2023-02-19T00:48:41.076Z,99.99
2023-02-19T00:49:41.069Z,99.99
2023-02-19T00:50:41.094Z,99.99
2023-02-19T00:51:41.068Z,99.99
2023-02-19T00:52:41.064Z,99.99
2023-02-19T00:53:41.067Z,99.99
2023-02-19T00:54:41.085Z,99.99
2023-02-19T00:55:41.053Z,99.99
2023-02-19T00:56:41.055Z,99.99
2023-02-19T00:57:41.052Z,99.99
2023-02-19T00:58:41.047Z,99.99
2023-02-19T00:59:41.043Z,99.99
2023-02-19T01:00:41.045Z,99.99
2023-02-19T01:01:41.115Z,99.99
2023-02-19T01:02:41.040Z,99.99
2023-02-19T01:03:41.042Z,99.99
2023-02-19T01:04:41.066Z,99.99
2023-02-19T01:05:41.025Z,99.99
2023-02-19T01:06:41.038Z,99.99
2023-02-19T01:07:41.011Z,99.99
2023-02-19T01:08:41.009Z,99.99
2023-02-19T01:09:41.004Z,99.99
2023-02-19T01:10:41.004Z,99.99
2023-02-19T01:11:40.999Z,99.99
2023-02-19T01:12:41.006Z,99.99
2023-02-19T01:13:40.993Z,99.99
2023-02-19T01:14:40.994Z,99.99
2023-02-19T01:15:40.980Z,99.99
2023-02-19T01:16:40.985Z,99.99
2023-02-19T01:17:40.979Z,99.99
2023-02-19T01:18:40.985Z,99.99
2023-02-19T01:19:40.970Z,99.99
2023-02-19T01:20:40.973Z,99.99
2023-02-19T01:21:40.967Z,99.99
2023-02-19T01:22:40.986Z,99.99
2023-02-19T01:23:40.982Z,99.99
2023-02-19T01:24:40.958Z,99.99
2023-02-19T01:25:40.959Z,99.99
2023-02-19T01:26:40.952Z,99.99
2023-02-19T01:27:40.941Z,99.99
2023-02-19T01:28:40.944Z,99.99
2023-02-19T01:29:40.950Z,99.99
2023-02-19T01:30:40.937Z,99.99
2023-02-19T01:31:41.085Z,99.99
2023-02-19T01:32:40.928Z,99.99
2023-02-19T01:33:40.933Z,99.99
2023-02-19T01:34:40.929Z,99.99
2023-02-19T01:35:40.922Z,99.99
2023-02-19T01:36:40.922Z,99.99
2023-02-19T01:37:40.911Z,99.99
2023-02-19T01:38:40.937Z,99.99
2023-02-19T01:39:40.909Z,99.99
2023-02-19T01:40:40.906Z,99.99
2023-02-19T01:41:40.914Z,99.99
2023-02-19T01:42:40.903Z,99.99
2023-02-19T01:43:40.893Z,99.99
2023-02-19T01:44:40.897Z,99.99
2023-02-19T01:45:40.886Z,99.99
2023-02-19T01:46:40.940Z,99.99
2023-02-19T01:47:40.876Z,99.99
2023-02-19T01:48:40.880Z,99.99
2023-02-19T01:49:40.876Z,99.99
2023-02-19T01:50:40.877Z,99.99
2023-02-19T01:51:40.866Z,99.99
2023-02-19T01:52:40.875Z,99.99
2023-02-19T01:53:40.868Z,99.99
2023-02-19T01:54:40.894Z,99.99
2023-02-19T01:55:40.855Z,99.99
2023-02-19T01:56:40.853Z,99.99
2023-02-19T01:57:40.848Z,99.99
2023-02-19T01:58:40.853Z,99.99
2023-02-19T01:59:40.847Z,99.99
2023-02-19T02:00:40.878Z,99.99
2023-02-19T02:01:41.007Z,99.99
2023-02-19T02:02:40.837Z,99.99
2023-02-19T02:03:40.840Z,99.99
2023-02-19T02:04:40.833Z,99.99
2023-02-19T02:05:40.826Z,99.99
2023-02-19T02:06:40.825Z,99.99
2023-02-19T02:07:40.824Z,99.99
2023-02-19T02:08:40.819Z,99.99
2023-02-19T02:09:40.816Z,99.99
2023-02-19T02:10:40.835Z,99.99
2023-02-19T02:11:40.808Z,99.99
2023-02-19T02:12:40.811Z,99.99
2023-02-19T02:13:40.808Z,99.99
2023-02-19T02:14:40.800Z,99.99
2023-02-19T02:15:40.799Z,99.99
2023-02-19T02:16:40.794Z,99.99
2023-02-19T02:17:40.785Z,99.99
2023-02-19T02:18:40.792Z,99.99
2023-02-19T02:19:40.781Z,99.99
2023-02-19T02:20:40.784Z,99.99
2023-02-19T02:21:40.783Z,99.99
2023-02-19T02:22:40.775Z,99.99
2023-02-19T02:23:40.767Z,99.99
2023-02-19T02:24:40.766Z,99.99
2023-02-19T02:25:40.761Z,99.99
2023-02-19T02:26:40.782Z,99.99
2023-02-19T02:27:40.756Z,99.99
2023-02-19T02:28:40.757Z,99.99
2023-02-19T02:29:40.754Z,99.99
2023-02-19T02:30:40.751Z,99.99
2023-02-19T02:31:40.851Z,99.99
2023-02-19T02:32:40.745Z,99.99
2023-02-19T02:33:40.734Z,99.99
2023-02-19T02:34:40.738Z,99.99
2023-02-19T02:35:40.730Z,99.99
2023-02-19T02:36:40.733Z,99.99
2023-02-19T02:37:40.725Z,99.99
2023-02-19T02:38:40.726Z,99.99
2023-02-19T02:39:40.715Z,99.99
2023-02-19T02:40:40.718Z,99.99
2023-02-19T02:41:40.708Z,99.99
2023-02-19T02:42:40.713Z,99.99
2023-02-19T02:43:40.702Z,99.99
2023-02-19T02:44:40.708Z,99.99
2023-02-19T02:45:40.739Z,99.99
2023-02-19T02:46:40.699Z,99.99
2023-02-19T02:47:40.690Z,99.99
2023-02-19T02:48:40.694Z,99.99
2023-02-19T02:49:40.685Z,99.99
2023-02-19T02:50:40.695Z,99.99
2023-02-19T02:51:40.676Z,99.99
2023-02-19T02:52:40.689Z,99.99
2023-02-19T02:53:40.673Z,99.99
2023-02-19T02:54:40.672Z,99.99
2023-02-19T02:55:40.667Z,99.99
2023-02-19T02:56:40.665Z,99.99
2023-02-19T02:57:40.658Z,99.99
2023-02-19T02:58:40.661Z,99.99
2023-02-19T02:59:40.654Z,99.99
2023-02-19T03:00:40.658Z,99.99
2023-02-19T03:01:40.642Z,99.99
2023-02-19T03:02:40.646Z,99.99
2023-02-19T03:03:40.641Z,99.99
2023-02-19T03:04:40.636Z,99.99
2023-02-19T03:05:40.634Z,99.99
2023-02-19T03:06:40.630Z,99.99
2023-02-19T03:07:40.621Z,99.99
2023-02-19T03:08:40.623Z,99.99
2023-02-19T03:09:40.713Z,99.99
2023-02-19T03:10:40.614Z,99.99
2023-02-19T03:11:40.609Z,99.99
2023-02-19T03:12:40.605Z,99.99
2023-02-19T03:13:40.602Z,99.99
2023-02-19T03:14:40.600Z,99.99
2023-02-19T03:15:40.596Z,99.99
2023-02-19T03:16:42.737Z,99.99
2023-02-19T03:17:40.608Z,99.99
2023-02-19T03:18:40.606Z,99.99
2023-02-19T03:19:40.580Z,99.99
2023-02-19T03:20:40.588Z,99.99
2023-02-19T03:21:40.576Z,99.99
2023-02-19T03:22:40.577Z,99.99
2023-02-19T03:23:40.569Z,99.99
2023-02-19T03:24:40.573Z,99.99
2023-02-19T03:25:40.575Z,99.99
2023-02-19T03:26:40.572Z,99.99
2023-02-19T03:27:40.557Z,99.99
2023-02-19T03:28:40.551Z,99.99
2023-02-19T03:29:40.560Z,99.99
2023-02-19T03:30:40.555Z,99.99
2023-02-19T03:31:40.642Z,99.99
2023-02-19T03:32:40.538Z,99.99
2023-02-19T03:33:40.530Z,99.99
2023-02-19T03:34:40.531Z,99.99
2023-02-19T03:35:40.526Z,99.99
2023-02-19T03:36:40.523Z,99.99
2023-02-19T03:37:40.517Z,99.99
2023-02-19T03:38:40.519Z,99.99
2023-02-19T03:39:40.514Z,99.99
2023-02-19T03:40:40.514Z,99.99
2023-02-19T03:41:40.508Z,99.99
2023-02-19T03:42:40.505Z,99.99
2023-02-19T03:43:40.500Z,99.99
2023-02-19T03:44:40.496Z,99.99
2023-02-19T03:45:40.508Z,99.99
2023-02-19T03:46:40.492Z,99.99
2023-02-19T03:47:40.483Z,99.99
2023-02-19T03:48:40.486Z,99.99
2023-02-19T03:49:40.484Z,99.99
2023-02-19T03:50:40.474Z,99.99
2023-02-19T03:51:40.472Z,99.99
2023-02-19T03:52:40.469Z,99.99
2023-02-19T03:53:40.469Z,99.99
2023-02-19T03:54:40.469Z,99.99
2023-02-19T03:55:40.455Z,99.99
2023-02-19T03:56:40.464Z,99.99
2023-02-19T03:57:40.460Z,99.99
2023-02-19T03:58:40.452Z,99.99
2023-02-19T03:59:40.447Z,99.99
2023-02-19T04:00:40.446Z,99.99
2023-02-19T04:01:40.438Z,99.99
2023-02-19T04:02:40.437Z,99.99
2023-02-19T04:03:40.431Z,99.99
2023-02-19T04:04:40.455Z,99.99
2023-02-19T04:05:40.424Z,99.99
2023-02-19T04:06:40.423Z,99.99
2023-02-19T04:07:40.419Z,99.99
2023-02-19T04:08:40.417Z,99.99
2023-02-19T04:09:40.409Z,99.99
2023-02-19T04:10:40.410Z,99.99
2023-02-19T04:11:40.414Z,99.99
2023-02-19T04:12:40.402Z,99.99
2023-02-19T04:13:40.397Z,99.99
2023-02-19T04:14:40.393Z,99.99
2023-02-19T04:15:40.391Z,99.99
2023-02-19T04:16:40.485Z,99.99
2023-02-19T04:17:40.384Z,99.99
2023-02-19T04:18:40.376Z,99.99
2023-02-19T04:19:40.383Z,99.99
2023-02-19T04:20:40.379Z,99.99
2023-02-19T04:21:40.368Z,99.99
2023-02-19T04:22:40.364Z,99.99
2023-02-19T04:23:40.370Z,99.99
2023-02-19T04:24:40.358Z,99.99
2023-02-19T04:25:40.354Z,99.99
2023-02-19T04:26:40.349Z,99.99
2023-02-19T04:27:40.351Z,99.99
2023-02-19T04:28:40.339Z,99.99
2023-02-19T04:29:40.338Z,99.99
2023-02-19T04:30:40.450Z,99.99
2023-02-19T04:31:40.339Z,99.99
2023-02-19T04:32:40.327Z,99.99
2023-02-19T04:33:40.321Z,99.99
2023-02-19T04:34:40.318Z,99.99
2023-02-19T04:35:40.316Z,99.99
2023-02-19T04:36:40.305Z,99.99
2023-02-19T04:37:40.301Z,99.99
2023-02-19T04:38:40.294Z,99.99
2023-02-19T04:39:40.295Z,99.99
2023-02-19T04:40:40.300Z,99.99
2023-02-19T04:41:40.286Z,99.99
2023-02-19T04:42:40.284Z,99.99
2023-02-19T04:43:40.278Z,99.99
2023-02-19T04:44:40.274Z,99.99
2023-02-19T04:45:40.267Z,99.99
2023-02-19T04:46:42.716Z,99.99
2023-02-19T04:47:40.261Z,99.99
2023-02-19T04:48:40.259Z,99.99
2023-02-19T04:49:40.260Z,99.99
2023-02-19T04:50:40.253Z,99.99
2023-02-19T04:51:40.248Z,99.99
2023-02-19T04:52:40.262Z,99.99
2023-02-19T04:53:40.241Z,99.99
2023-02-19T04:54:40.236Z,99.99
2023-02-19T04:55:40.252Z,99.99
2023-02-19T04:56:40.229Z,99.99
2023-02-19T04:57:40.223Z,99.99
2023-02-19T04:58:40.218Z,99.99
2023-02-19T04:59:40.218Z,99.99
2023-02-19T05:00:40.208Z,99.99
2023-02-19T05:01:40.248Z,99.99
2023-02-19T05:02:40.204Z,99.99
2023-02-19T05:03:40.193Z,99.99
2023-02-19T05:04:40.258Z,99.99
2023-02-19T05:05:40.188Z,99.99
2023-02-19T05:06:40.182Z,99.99
2023-02-19T05:07:40.185Z,99.99
2023-02-19T05:08:40.189Z,99.99
2023-02-19T05:09:40.183Z,99.99
2023-02-19T05:10:40.171Z,99.99
2023-02-19T05:11:40.169Z,99.99
2023-02-19T05:12:40.164Z,99.99
2023-02-19T05:13:40.203Z,99.99
2023-02-19T05:14:40.155Z,99.99
2023-02-19T05:15:40.174Z,99.99
2023-02-19T05:16:40.145Z,99.99
2023-02-19T05:17:40.148Z,99.99
2023-02-19T05:18:40.138Z,99.99
2023-02-19T05:19:40.138Z,99.99
2023-02-19T05:20:40.134Z,99.99
2023-02-19T05:21:40.128Z,99.99
2023-02-19T05:22:40.122Z,99.99
2023-02-19T05:23:40.120Z,99.99
2023-02-19T05:24:40.117Z,99.99
2023-02-19T05:25:40.111Z,99.99
2023-02-19T05:26:40.109Z,99.99
2023-02-19T05:27:40.109Z,99.99
2023-02-19T05:28:40.107Z,99.99
2023-02-19T05:29:40.163Z,99.99
2023-02-19T05:30:40.089Z,99.99
2023-02-19T05:31:40.247Z,99.99
2023-02-19T05:32:40.103Z,99.99
2023-02-19T05:33:40.081Z,99.99
2023-02-19T05:34:40.078Z,99.99
2023-02-19T05:35:40.094Z,99.99
2023-02-19T05:36:40.065Z,99.99
2023-02-19T05:37:40.065Z,99.99
2023-02-19T05:38:40.057Z,99.99
2023-02-19T05:39:40.054Z,99.99
2023-02-19T05:40:40.052Z,99.99
2023-02-19T05:41:40.050Z,99.99
2023-02-19T05:42:40.040Z,99.99
2023-02-19T05:43:40.047Z,99.99
2023-02-19T05:44:40.035Z,99.99
2023-02-19T05:45:40.036Z,99.99
2023-02-19T05:46:40.076Z,99.99
2023-02-19T05:47:40.024Z,99.99
2023-02-19T05:48:40.034Z,99.99
2023-02-19T05:49:40.021Z,99.99
2023-02-19T05:50:40.119Z,99.99
2023-02-19T05:51:40.008Z,99.99
2023-02-19T05:52:40.006Z,99.99
2023-02-19T05:53:40.018Z,99.99
2023-02-19T05:54:39.999Z,99.99
2023-02-19T05:55:40.000Z,99.99
2023-02-19T05:56:39.990Z,99.99
2023-02-19T05:57:42.514Z,99.99
2023-02-19T05:58:39.979Z,99.99
2023-02-19T05:59:39.981Z,99.99
2023-02-19T06:00:39.970Z,99.99
2023-02-19T06:01:39.970Z,99.99
2023-02-19T06:02:40.030Z,99.99
2023-02-19T06:03:39.999Z,99.99
2023-02-19T06:04:39.957Z,99.99
2023-02-19T06:05:39.955Z,99.99
2023-02-19T06:06:39.943Z,99.99
2023-02-19T06:07:39.960Z,99.99
2023-02-19T06:08:39.953Z,99.99
2023-02-19T06:09:39.940Z,99.99
2023-02-19T06:10:39.931Z,99.99
2023-02-19T06:11:39.934Z,99.99
2023-02-19T06:12:39.922Z,99.99
2023-02-19T06:13:39.923Z,99.99
2023-02-19T06:14:39.913Z,99.99
2023-02-19T06:15:39.915Z,99.99
2023-02-19T06:16:39.907Z,99.99
2023-02-19T06:17:39.905Z,99.99
2023-02-19T06:18:39.897Z,99.99
2023-02-19T06:19:39.897Z,99.99
2023-02-19T06:20:39.890Z,99.99
2023-02-19T06:21:39.893Z,99.99
2023-02-19T06:22:39.887Z,99.99
2023-02-19T06:23:39.882Z,99.99
2023-02-19T06:24:39.871Z,99.99
2023-02-19T06:25:39.964Z,99.99
2023-02-19T06:26:39.866Z,99.99
2023-02-19T06:27:39.881Z,99.99
2023-02-19T06:28:39.861Z,99.99
2023-02-19T06:29:39.858Z,99.99
2023-02-19T06:30:39.853Z,99.99
2023-02-19T06:31:40.050Z,99.99
2023-02-19T06:32:39.847Z,99.99
2023-02-19T06:33:39.843Z,99.99
2023-02-19T06:34:39.835Z,99.99
2023-02-19T06:35:39.835Z,99.99
2023-02-19T06:36:39.831Z,99.99
2023-02-19T06:37:39.827Z,99.99
2023-02-19T06:38:39.825Z,99.99
2023-02-19T06:39:39.833Z,99.99
2023-02-19T06:40:39.830Z,99.99
2023-02-19T06:41:39.815Z,99.99
2023-02-19T06:42:39.811Z,99.99
2023-02-19T06:43:39.812Z,99.99
2023-02-19T06:44:39.799Z,99.99
2023-02-19T06:45:39.800Z,99.99
2023-02-19T06:46:39.861Z,99.99
2023-02-19T06:47:39.788Z,99.99
2023-02-19T06:48:39.789Z,99.99
2023-02-19T06:49:39.781Z,99.99
2023-02-19T06:50:39.776Z,99.99
2023-02-19T06:51:39.773Z,99.99
2023-02-19T06:52:39.768Z,99.99
2023-02-19T06:53:39.781Z,99.99
2023-02-19T06:54:39.764Z,99.99
2023-02-19T06:55:39.758Z,99.99
2023-02-19T06:56:39.774Z,99.99
2023-02-19T06:57:39.748Z,99.99
2023-02-19T06:58:39.745Z,99.99
2023-02-19T06:59:39.738Z,99.99
2023-02-19T07:00:39.760Z,99.99
2023-02-19T07:01:39.737Z,99.99
2023-02-19T07:02:39.729Z,99.99
2023-02-19T07:03:39.729Z,99.99
2023-02-19T07:04:39.722Z,99.99
2023-02-19T07:05:39.719Z,99.99
2023-02-19T07:06:39.713Z,99.99
2023-02-19T07:07:39.731Z,99.99
2023-02-19T07:08:39.699Z,99.99
2023-02-19T07:09:39.696Z,99.99
2023-02-19T07:10:39.689Z,99.99
2023-02-19T07:11:39.692Z,99.99
2023-02-19T07:12:39.684Z,99.99
2023-02-19T07:13:39.687Z,99.99
2023-02-19T07:14:39.677Z,99.99
2023-02-19T07:15:39.676Z,99.99
2023-02-19T07:16:39.733Z,99.99
2023-02-19T07:17:39.663Z,99.99
2023-02-19T07:18:39.664Z,99.99
2023-02-19T07:19:39.657Z,99.99
2023-02-19T07:20:39.654Z,99.99
2023-02-19T07:21:39.647Z,99.99
2023-02-19T07:22:39.640Z,99.99
2023-02-19T07:23:39.665Z,99.99
2023-02-19T07:24:39.636Z,99.99
2023-02-19T07:25:39.715Z,99.99
2023-02-19T07:26:39.625Z,99.99
2023-02-19T07:27:39.625Z,99.99
2023-02-19T07:28:39.625Z,99.99
2023-02-19T07:29:39.615Z,99.99
2023-02-19T07:30:39.604Z,99.99
2023-02-19T07:31:39.723Z,99.99
2023-02-19T07:32:39.604Z,99.99
2023-02-19T07:33:39.604Z,99.99
2023-02-19T07:34:39.592Z,99.99
2023-02-19T07:35:39.595Z,99.99
2023-02-19T07:36:39.589Z,99.99
2023-02-19T07:37:39.588Z,99.99
2023-02-19T07:38:39.580Z,99.99
2023-02-19T07:39:39.584Z,99.99
2023-02-19T07:40:39.571Z,99.99
2023-02-19T07:41:39.575Z,99.99
2023-02-19T07:42:39.571Z,99.99
2023-02-19T07:43:39.565Z,99.99
2023-02-19T07:44:39.557Z,99.99
2023-02-19T07:45:39.600Z,99.99
2023-02-19T07:46:39.557Z,99.99
2023-02-19T07:47:39.553Z,99.99
2023-02-19T07:48:39.564Z,99.99
2023-02-19T07:49:39.542Z,99.99
2023-02-19T07:50:39.543Z,99.99
2023-02-19T07:51:39.537Z,99.99
2023-02-19T07:52:39.541Z,99.99
2023-02-19T07:53:39.534Z,99.99
2023-02-19T07:54:39.528Z,99.99
2023-02-19T07:55:39.521Z,99.99
2023-02-19T07:56:39.524Z,99.99
2023-02-19T07:57:39.526Z,99.99
2023-02-19T07:58:39.504Z,99.99
2023-02-19T07:59:39.512Z,99.99
2023-02-19T08:00:39.511Z,99.99
2023-02-19T08:01:39.499Z,99.99
2023-02-19T08:02:39.509Z,99.99
2023-02-19T08:03:39.569Z,99.99
2023-02-19T08:04:39.492Z,99.99
2023-02-19T08:05:39.484Z,99.99
2023-02-19T08:06:39.493Z,99.99
2023-02-19T08:07:39.484Z,99.99
2023-02-19T08:08:39.489Z,99.99
2023-02-19T08:09:39.492Z,99.99
2023-02-19T08:10:39.462Z,99.99
2023-02-19T08:11:39.468Z,99.99
2023-02-19T08:12:39.464Z,99.99
2023-02-19T08:13:39.458Z,99.99
2023-02-19T08:14:39.469Z,99.99
2023-02-19T08:15:39.445Z,99.99
2023-02-19T08:16:43.336Z,99.99
2023-02-19T08:17:39.450Z,99.99
2023-02-19T08:18:39.431Z,99.99
2023-02-19T08:19:39.439Z,99.99
2023-02-19T08:20:39.442Z,99.99
2023-02-19T08:21:39.431Z,99.99
2023-02-19T08:22:39.422Z,99.99
2023-02-19T08:23:39.421Z,99.99
2023-02-19T08:24:39.423Z,99.99
2023-02-19T08:25:39.416Z,99.99
2023-02-19T08:26:39.409Z,99.99
2023-02-19T08:27:39.410Z,99.99
2023-02-19T08:28:39.409Z,99.99
2023-02-19T08:29:39.397Z,99.99
2023-02-19T08:30:39.498Z,99.99
2023-02-19T08:31:39.581Z,99.99
2023-02-19T08:32:39.418Z,99.99
2023-02-19T08:33:39.385Z,99.99
2023-02-19T08:34:39.390Z,99.99
2023-02-19T08:35:39.382Z,99.99
2023-02-19T08:36:39.381Z,99.99
2023-02-19T08:37:39.377Z,99.99
2023-02-19T08:38:39.378Z,99.99
2023-02-19T08:39:39.375Z,99.99
2023-02-19T08:40:39.384Z,99.99
2023-02-19T08:41:39.380Z,99.99
2023-02-19T08:42:39.362Z,99.99
2023-02-19T08:43:39.361Z,99.99
2023-02-19T08:44:39.367Z,99.99
2023-02-19T08:45:39.363Z,99.99
2023-02-19T08:46:39.353Z,99.99
2023-02-19T08:47:39.352Z,99.99
2023-02-19T08:48:39.354Z,99.99
2023-02-19T08:49:39.337Z,99.99
2023-02-19T08:50:39.338Z,99.99
2023-02-19T08:51:39.332Z,99.99
2023-02-19T08:52:39.340Z,99.99
2023-02-19T08:53:39.344Z,99.99
2023-02-19T08:54:39.325Z,99.99
2023-02-19T08:55:39.330Z,99.99
2023-02-19T08:56:39.328Z,99.99
2023-02-19T08:57:39.331Z,99.99
2023-02-19T08:58:39.323Z,99.99
2023-02-19T08:59:39.317Z,99.99
2023-02-19T09:00:39.314Z,99.99
2023-02-19T09:01:39.397Z,99.99
2023-02-19T09:02:39.309Z,99.99
2023-02-19T09:03:39.304Z,99.83
2023-02-19T09:04:39.303Z,98.36
2023-02-19T09:05:39.301Z,97.66
2023-02-19T09:06:40.143Z,99.99
2023-02-19T09:07:39.299Z,98.80
2023-02-19T09:08:39.300Z,99.99
2023-02-19T09:09:39.296Z,99.99
2023-02-19T09:10:39.289Z,99.99
2023-02-19T09:11:39.293Z,99.99
2023-02-19T09:12:39.289Z,99.99
2023-02-19T09:13:39.286Z,99.99
2023-02-19T09:14:39.288Z,99.99
2023-02-19T09:15:39.400Z,99.99
2023-02-19T09:16:39.305Z,99.99
2023-02-19T09:17:39.276Z,99.99
2023-02-19T09:18:39.293Z,99.99
2023-02-19T09:19:39.281Z,99.99
2023-02-19T09:20:39.279Z,99.99
2023-02-19T09:21:39.284Z,99.99
2023-02-19T09:22:39.281Z,99.99
2023-02-19T09:23:39.285Z,99.99
2023-02-19T09:24:39.272Z,99.99
2023-02-19T09:25:39.283Z,99.99
2023-02-19T09:26:39.282Z,99.99
2023-02-19T09:27:39.265Z,99.99
2023-02-19T09:28:39.272Z,99.99
2023-02-19T09:29:39.270Z,99.99
2023-02-19T09:30:39.279Z,99.99
2023-02-19T09:31:39.441Z,99.99
2023-02-19T09:32:39.262Z,99.99
2023-02-19T09:33:39.254Z,99.99
2023-02-19T09:34:39.269Z,99.99
2023-02-19T09:35:39.257Z,99.99
2023-02-19T09:36:39.253Z,99.99
2023-02-19T09:37:39.257Z,99.99
2023-02-19T09:38:39.250Z,99.99
2023-02-19T09:39:39.263Z,99.99
2023-02-19T09:40:39.251Z,99.99
2023-02-19T09:41:39.247Z,99.99
2023-02-19T09:42:39.242Z,99.99
2023-02-19T09:43:39.247Z,99.99
2023-02-19T09:44:39.245Z,99.99
2023-02-19T09:45:39.240Z,99.99
2023-02-19T09:46:39.237Z,99.99
2023-02-19T09:47:39.292Z,99.99
2023-02-19T09:48:39.243Z,99.99
2023-02-19T09:49:39.237Z,99.99
2023-02-19T09:50:39.236Z,99.99
2023-02-19T09:51:39.239Z,99.99
2023-02-19T09:52:39.238Z,99.99
2023-02-19T09:53:39.221Z,99.99
2023-02-19T09:54:39.242Z,99.99
2023-02-19T09:55:39.218Z,99.99
2023-02-19T09:56:39.218Z,99.99
2023-02-19T09:57:39.212Z,99.99
2023-02-19T09:58:39.214Z,99.99
2023-02-19T09:59:39.210Z,99.99
2023-02-19T10:00:39.210Z,99.99
2023-02-19T10:01:39.269Z,99.99
2023-02-19T10:02:39.208Z,99.99
2023-02-19T10:03:39.219Z,99.99
2023-02-19T10:04:39.203Z,99.99
2023-02-19T10:05:39.198Z,99.99
2023-02-19T10:06:39.204Z,99.99
2023-02-19T10:07:39.201Z,99.99
2023-02-19T10:08:39.208Z,99.99
2023-02-19T10:09:39.187Z,99.99
2023-02-19T10:10:39.193Z,99.99
2023-02-19T10:11:39.183Z,99.99
2023-02-19T10:12:39.189Z,99.71
2023-02-19T10:13:39.180Z,99.41
2023-02-19T10:14:39.189Z,99.05
2023-02-19T10:15:39.213Z,98.75
2023-02-19T10:16:39.187Z,99.36
2023-02-19T10:17:39.174Z,99.05
2023-02-19T10:18:39.174Z,99.26
2023-02-19T10:19:39.173Z,99.99
2023-02-19T10:20:39.185Z,98.75
2023-02-19T10:21:39.169Z,98.08
2023-02-19T10:22:39.178Z,99.41
2023-02-19T10:23:39.169Z,98.58
2023-02-19T10:24:39.170Z,99.99
2023-02-19T10:25:39.159Z,99.99
2023-02-19T10:26:39.163Z,99.99
2023-02-19T10:27:39.162Z,99.00
2023-02-19T10:28:39.170Z,99.11
2023-02-19T10:29:39.161Z,99.06
2023-02-19T10:30:39.160Z,98.56
2023-02-19T10:31:39.228Z,99.02
2023-02-19T10:32:39.156Z,95.06
2023-02-19T10:33:39.146Z,93.99
2023-02-19T10:34:39.151Z,95.10
2023-02-19T10:35:39.154Z,96.58
2023-02-19T10:36:39.180Z,95.00
2023-02-19T10:37:39.147Z,96.77
2023-02-19T10:38:39.148Z,97.64
2023-02-19T10:39:39.138Z,96.92
2023-02-19T10:40:39.150Z,98.55
2023-02-19T10:41:39.135Z,98.66
2023-02-19T10:42:39.145Z,97.94
2023-02-19T10:43:39.135Z,96.01
2023-02-19T10:44:39.132Z,96.78
2023-02-19T10:45:39.128Z,97.04
2023-02-19T10:46:39.161Z,96.89
2023-02-19T10:47:39.129Z,95.98
2023-02-19T10:48:39.130Z,95.38
2023-02-19T10:49:39.140Z,95.18
2023-02-19T10:50:39.135Z,93.61
2023-02-19T10:51:39.127Z,95.03
2023-02-19T10:52:39.130Z,95.03
2023-02-19T10:53:39.120Z,92.60
2023-02-19T10:54:39.123Z,93.57
2023-02-19T10:55:39.118Z,92.90
2023-02-19T10:56:39.119Z,95.03
2023-02-19T10:57:39.117Z,93.51
2023-02-19T10:58:39.117Z,94.93
2023-02-19T10:59:39.113Z,92.49
2023-02-19T11:00:39.121Z,91.42
2023-02-19T11:01:39.114Z,93.05
2023-02-19T11:02:39.115Z,93.25
2023-02-19T11:03:39.126Z,94.98
2023-02-19T11:04:39.187Z,94.26
2023-02-19T11:05:39.102Z,92.38
2023-02-19T11:06:39.108Z,93.86
2023-02-19T11:07:39.106Z,92.94
2023-02-19T11:08:39.101Z,92.90
2023-02-19T11:09:39.103Z,92.64
2023-02-19T11:10:39.099Z,92.54
2023-02-19T11:11:39.104Z,93.15
2023-02-19T11:12:39.099Z,92.79
2023-02-19T11:13:39.097Z,93.19
2023-02-19T11:14:39.099Z,93.03
2023-02-19T11:15:39.111Z,94.15
2023-02-19T11:16:39.109Z,92.72
2023-02-19T11:17:39.090Z,94.15
2023-02-19T11:18:39.100Z,93.18
2023-02-19T11:19:39.118Z,93.38
2023-02-19T11:20:39.093Z,94.90
2023-02-19T11:21:39.086Z,92.77
2023-02-19T11:22:39.084Z,95.15
2023-02-19T11:23:39.088Z,92.21
2023-02-19T11:24:39.088Z,92.25
2023-02-19T11:25:39.084Z,93.51
2023-02-19T11:26:39.091Z,93.41
2023-02-19T11:27:39.079Z,94.53
2023-02-19T11:28:39.137Z,95.34
2023-02-19T11:29:39.077Z,96.26
2023-02-19T11:30:39.172Z,94.47
2023-02-19T11:31:39.143Z,95.29
2023-02-19T11:32:39.080Z,94.27
2023-02-19T11:33:39.072Z,97.63
2023-02-19T11:34:39.078Z,97.53
2023-02-19T11:35:39.072Z,94.66
2023-02-19T11:36:39.073Z,95.68
2023-02-19T11:37:39.072Z,95.28
2023-02-19T11:38:39.073Z,95.21
2023-02-19T11:39:39.068Z,95.62
2023-02-19T11:40:39.076Z,95.32
2023-02-19T11:41:39.064Z,94.60
2023-02-19T11:42:39.078Z,96.84
2023-02-19T11:43:39.070Z,95.62
2023-02-19T11:44:39.067Z,97.36
2023-02-19T11:45:39.064Z,96.84
2023-02-19T11:46:39.191Z,96.70
2023-02-19T11:47:39.067Z,97.41
2023-02-19T11:48:39.061Z,96.91
2023-02-19T11:49:39.057Z,96.76
2023-02-19T11:50:39.055Z,96.15
2023-02-19T11:51:39.055Z,95.23
2023-02-19T11:52:39.064Z,93.35
2023-02-19T11:53:39.051Z,95.14
2023-02-19T11:54:39.053Z,95.20
2023-02-19T11:55:39.045Z,94.44
2023-02-19T11:56:39.057Z,95.92
2023-02-19T11:57:39.067Z,92.79
2023-02-19T11:58:39.049Z,91.56
2023-02-19T11:59:39.050Z,91.52
2023-02-19T12:00:39.040Z,92.84
2023-02-19T12:01:39.042Z,91.28
2023-02-19T12:02:39.043Z,90.06
2023-02-19T12:03:39.036Z,88.64
2023-02-19T12:04:39.043Z,90.61
2023-02-19T12:05:39.034Z,88.89
2023-02-19T12:06:39.038Z,87.87
2023-02-19T12:07:39.044Z,90.14
2023-02-19T12:08:39.047Z,88.93
2023-02-19T12:09:39.031Z,89.58
2023-02-19T12:10:39.028Z,91.00
2023-02-19T12:11:39.026Z,91.05
2023-02-19T12:12:39.074Z,90.44
2023-02-19T12:13:39.024Z,88.91
2023-02-19T12:14:39.022Z,89.05
2023-02-19T12:15:39.019Z,89.50
2023-02-19T12:16:39.060Z,89.81
2023-02-19T12:17:39.027Z,89.95
2023-02-19T12:18:39.016Z,90.25
2023-02-19T12:19:39.016Z,91.22
2023-02-19T12:20:39.021Z,90.95
2023-02-19T12:21:39.013Z,93.29
2023-02-19T12:22:39.017Z,92.44
2023-02-19T12:23:39.016Z,91.16
2023-02-19T12:24:39.019Z,92.58
2023-02-19T12:25:39.010Z,91.87
2023-02-19T12:26:39.017Z,92.68
2023-02-19T12:27:39.005Z,92.83
2023-02-19T12:28:39.008Z,92.01
2023-02-19T12:29:39.004Z,93.38
2023-02-19T12:30:39.181Z,93.48
2023-02-19T12:31:39.016Z,93.24
2023-02-19T12:32:39.008Z,93.13
2023-02-19T12:33:38.997Z,94.05
2023-02-19T12:34:38.999Z,93.18
2023-02-19T12:35:38.995Z,93.74
2023-02-19T12:36:38.997Z,94.56
2023-02-19T12:37:38.991Z,94.31
2023-02-19T12:38:38.993Z,94.42
2023-02-19T12:39:38.992Z,92.54
2023-02-19T12:40:38.994Z,93.41
2023-02-19T12:41:38.988Z,93.71
2023-02-19T12:42:38.989Z,92.65
2023-02-19T12:43:38.989Z,91.74
2023-02-19T12:44:38.984Z,89.70
2023-02-19T12:45:39.013Z,91.23
2023-02-19T12:46:38.988Z,90.31
2023-02-19T12:47:38.983Z,88.95
2023-02-19T12:48:38.999Z,89.56
2023-02-19T12:49:38.976Z,89.66
2023-02-19T12:50:38.979Z,88.95
2023-02-19T12:51:38.983Z,89.97
2023-02-19T12:52:38.976Z,89.52